createdAt,value
2023-01-07T00:00:26.312Z,6.00
2023-01-07T00:02:52.819Z,5.33
2023-01-07T00:05:19.661Z,5.33
2023-01-07T00:07:46.021Z,6.00
2023-01-07T00:10:13.268Z,5.50
2023-01-07T00:12:39.643Z,5.00
2023-01-07T00:15:06.044Z,6.00
2023-01-07T00:17:32.482Z,5.00
2023-01-07T00:19:58.838Z,5.00
2023-01-07T00:22:25.255Z,6.00
2023-01-07T00:24:51.667Z,6.00
2023-01-07T00:27:18.060Z,5.00
2023-01-07T00:29:44.435Z,6.00
2023-01-07T00:32:10.825Z,6.00
2023-01-07T00:34:37.186Z,5.00
2023-01-07T00:37:03.635Z,2.00
2023-01-07T00:42:13.899Z,4.67
2023-01-07T00:44:43.338Z,6.00
2023-01-07T00:47:10.565Z,5.00
2023-01-07T00:49:36.962Z,5.00
2023-01-07T00:52:03.338Z,5.00
2023-01-07T00:57:23.633Z,5.00
2023-01-07T00:59:50.096Z,5.00
2023-01-07T01:02:16.488Z,6.00
2023-01-07T01:04:42.856Z,5.33
2023-01-07T01:07:10.170Z,6.00
2023-01-07T01:12:20.376Z,5.67
2023-01-07T01:14:47.621Z,5.75
2023-01-07T01:17:14.861Z,5.00
2023-01-07T01:19:41.231Z,4.67
2023-01-07T01:22:07.613Z,5.00
2023-01-07T01:27:27.935Z,5.00
2023-01-07T01:29:54.344Z,6.00
2023-01-07T01:32:20.733Z,6.00
2023-01-07T01:34:47.096Z,6.00
2023-01-07T01:37:14.335Z,5.75
2023-01-07T01:42:24.481Z,5.00
2023-01-07T01:44:50.908Z,5.67
2023-01-07T01:47:17.295Z,5.67
2023-01-07T01:49:43.711Z,6.00
2023-01-07T01:52:10.099Z,4.33
2023-01-07T01:57:30.300Z,6.00
2023-01-07T01:59:57.536Z,5.50
2023-01-07T02:02:23.959Z,3.00
2023-01-07T02:04:50.383Z,5.00
2023-01-07T02:07:16.778Z,4.67
2023-01-07T02:12:37.241Z,5.00
2023-01-07T02:15:03.659Z,6.00
2023-01-07T02:17:30.057Z,6.67
2023-01-07T02:19:56.417Z,5.00
2023-01-07T02:22:22.789Z,5.67
2023-01-07T02:27:33.871Z,6.00
2023-01-07T02:30:00.278Z,5.33
2023-01-07T02:32:26.686Z,5.00
2023-01-07T02:34:53.050Z,5.00
2023-01-07T02:37:20.340Z,5.50
2023-01-07T02:39:46.712Z,5.33
2023-01-07T02:42:13.443Z,7.00
2023-01-07T02:44:39.812Z,5.33
2023-01-07T02:47:06.194Z,5.67
2023-01-07T02:49:32.571Z,5.00
2023-01-07T02:51:59.803Z,5.00
2023-01-07T02:54:26.186Z,5.33
2023-01-07T02:56:52.596Z,6.00
2023-01-07T02:59:18.960Z,5.00
2023-01-07T03:01:45.441Z,6.00
2023-01-07T03:04:14.825Z,5.33
2023-01-07T03:06:41.253Z,5.00
2023-01-07T03:09:07.610Z,5.00
2023-01-07T03:11:34.039Z,7.33
2023-01-07T03:14:00.421Z,6.00
2023-01-07T03:16:26.946Z,6.00
2023-01-07T03:18:54.238Z,6.00
2023-01-07T03:21:21.494Z,6.00
2023-01-07T03:23:48.757Z,6.50
2023-01-07T03:26:15.171Z,5.50
2023-01-07T03:28:42.424Z,6.50
2023-01-07T03:31:09.662Z,6.00
2023-01-07T03:33:36.927Z,6.00
2023-01-07T03:36:03.319Z,4.33
2023-01-07T03:38:29.697Z,6.00
2023-01-07T03:40:56.352Z,8.00
2023-01-07T03:43:23.603Z,7.00
2023-01-07T03:45:50.018Z,5.33
2023-01-07T03:48:16.444Z,5.00
2023-01-07T03:50:42.777Z,3.00
2023-01-07T03:53:09.286Z,8.00
2023-01-07T03:55:35.654Z,5.67
2023-01-07T04:00:46.201Z,5.00
2023-01-07T04:03:12.569Z,6.00
2023-01-07T04:05:38.928Z,5.00
2023-01-07T04:08:05.294Z,6.00
2023-01-07T04:10:31.767Z,4.67
2023-01-07T04:15:42.265Z,6.00
2023-01-07T04:18:08.649Z,5.50
2023-01-07T04:20:35.043Z,6.67
2023-01-07T04:23:01.438Z,6.00
2023-01-07T04:25:28.666Z,4.75
2023-01-07T04:30:48.798Z,6.00
2023-01-07T04:33:16.128Z,3.00
2023-01-07T04:35:42.500Z,5.00
2023-01-07T04:38:08.931Z,5.00
2023-01-07T04:40:35.312Z,5.00
2023-01-07T04:45:46.532Z,6.00
2023-01-07T04:48:12.925Z,5.50
2023-01-07T04:50:40.215Z,8.75
2023-01-07T04:53:06.687Z,7.00
2023-01-07T04:55:33.110Z,7.00
2023-01-07T05:00:56.674Z,9.00
2023-01-07T05:03:23.145Z,10.00
2023-01-07T05:05:52.288Z,20.33
2023-01-07T05:08:18.839Z,11.00
2023-01-07T05:10:47.157Z,9.60
2023-01-07T05:16:00.167Z,10.00
2023-01-07T05:18:26.660Z,23.00
2023-01-07T05:20:53.175Z,19.50
2023-01-07T05:23:20.554Z,17.50
2023-01-07T05:25:48.031Z,16.00
2023-01-07T05:30:58.813Z,13.00
2023-01-07T05:33:25.287Z,12.00
2023-01-07T05:35:52.701Z,13.00
2023-01-07T05:38:20.035Z,11.00
2023-01-07T05:40:49.445Z,11.33
2023-01-07T05:46:11.268Z,14.00
2023-01-07T05:48:37.745Z,13.50
2023-01-07T05:51:04.239Z,13.00
2023-01-07T05:53:30.751Z,12.00
2023-01-07T05:55:58.155Z,14.67
2023-01-07T06:01:20.332Z,13.33
2023-01-07T06:03:48.224Z,10.00
2023-01-07T06:06:14.670Z,9.00
2023-01-07T06:08:43.292Z,10.00
2023-01-07T06:11:10.006Z,9.50
2023-01-07T06:16:22.442Z,10.67
2023-01-07T06:18:49.712Z,12.00
2023-01-07T06:21:17.083Z,11.33
2023-01-07T06:23:44.485Z,15.33
2023-01-07T06:26:10.954Z,13.00
2023-01-07T06:28:38.295Z,11.67
2023-01-07T06:31:04.789Z,13.50
2023-01-07T06:33:34.765Z,10.00
2023-01-07T06:36:02.079Z,9.67
2023-01-07T06:38:29.465Z,12.00
2023-01-07T06:40:56.791Z,11.67
2023-01-07T06:43:23.289Z,9.50
2023-01-07T06:45:51.764Z,10.80
2023-01-07T06:48:18.203Z,12.00
2023-01-07T06:50:45.583Z,10.67
2023-01-07T06:53:12.239Z,13.50
2023-01-07T06:55:38.694Z,12.00
2023-01-07T06:58:06.115Z,11.67
2023-01-07T07:00:32.583Z,13.00
2023-01-07T07:03:00.004Z,11.67
2023-01-07T07:05:27.403Z,12.33
2023-01-07T07:07:53.962Z,12.00
2023-01-07T07:10:20.445Z,13.50
2023-01-07T07:12:46.953Z,11.50
2023-01-07T07:15:14.212Z,13.00
2023-01-07T07:17:40.683Z,10.50
2023-01-07T07:20:07.200Z,13.00
2023-01-07T07:22:33.640Z,11.00
2023-01-07T07:25:00.950Z,13.00
2023-01-07T07:27:28.222Z,11.00
2023-01-07T07:29:54.696Z,11.00
2023-01-07T07:32:22.050Z,10.67
2023-01-07T07:34:49.335Z,9.67
2023-01-07T07:37:16.773Z,11.67
2023-01-07T07:39:44.096Z,12.00
2023-01-07T07:42:10.584Z,7.00
2023-01-07T07:44:37.884Z,11.67
2023-01-07T07:49:49.195Z,9.50
2023-01-07T07:52:15.720Z,10.00
2023-01-07T07:54:43.072Z,12.00
2023-01-07T07:57:09.623Z,11.00
2023-01-07T07:59:36.082Z,12.00
2023-01-07T08:04:56.472Z,16.50
2023-01-07T08:07:32.174Z,14.67
2023-01-07T08:10:00.475Z,19.00
2023-01-07T08:12:27.056Z,21.00
2023-01-07T08:14:53.542Z,18.00
2023-01-07T08:20:05.772Z,18.00
2023-01-07T08:22:33.208Z,18.00
2023-01-07T08:24:59.844Z,21.50
2023-01-07T08:27:26.333Z,19.00
2023-01-07T08:29:52.836Z,21.00
2023-01-07T08:35:15.275Z,18.00
2023-01-07T08:37:41.770Z,18.50
2023-01-07T08:40:08.314Z,21.00
2023-01-07T08:42:34.913Z,22.00
2023-01-07T08:45:01.414Z,20.50
2023-01-07T08:50:12.970Z,17.50
2023-01-07T08:52:39.444Z,21.00
2023-01-07T08:55:06.998Z,27.67
2023-01-07T08:57:33.481Z,21.00
2023-01-07T08:59:59.967Z,15.00
2023-01-07T09:05:22.351Z,16.67
2023-01-07T09:07:48.838Z,16.50
2023-01-07T09:10:15.333Z,17.50
2023-01-07T09:12:42.686Z,14.00
2023-01-07T09:15:10.033Z,15.67
2023-01-07T09:20:21.552Z,13.00
2023-01-07T09:22:48.015Z,14.00
2023-01-07T09:25:14.583Z,12.00
2023-01-07T09:27:41.957Z,10.67
2023-01-07T09:30:09.355Z,16.00
2023-01-07T09:35:30.731Z,15.00
2023-01-07T09:37:58.172Z,11.67
2023-01-07T09:40:25.558Z,13.67
2023-01-07T09:42:52.051Z,16.00
2023-01-07T09:45:18.550Z,14.00
2023-01-07T09:50:31.092Z,12.33
2023-01-07T09:52:58.476Z,12.33
2023-01-07T09:55:24.953Z,12.50
2023-01-07T09:57:51.501Z,10.50
2023-01-07T10:00:18.028Z,12.00
2023-01-07T10:05:28.381Z,12.00
2023-01-07T10:08:31.503Z,12.67
2023-01-07T10:10:44.133Z,12.20
2023-01-07T10:13:11.452Z,11.67
2023-01-07T10:15:37.974Z,12.00
2023-01-07T10:20:58.697Z,10.00
2023-01-07T10:23:27.044Z,10.80
2023-01-07T10:25:55.378Z,9.20
2023-01-07T10:28:21.884Z,12.50
2023-01-07T10:30:48.369Z,13.00
2023-01-07T10:35:59.551Z,11.00
2023-01-07T10:38:27.970Z,11.40
2023-01-07T10:40:55.280Z,10.67
2023-01-07T10:43:22.517Z,11.33
2023-01-07T10:45:49.966Z,14.00
2023-01-07T10:48:16.444Z,13.00
2023-01-07T10:50:43.929Z,13.33
2023-01-07T10:53:10.409Z,16.00
2023-01-07T10:55:37.828Z,14.00
2023-01-07T10:58:05.269Z,17.67
2023-01-07T11:00:31.767Z,19.00
2023-01-07T11:02:58.323Z,15.50
2023-01-07T11:05:25.849Z,12.33
2023-01-07T11:07:53.333Z,15.67
2023-01-07T11:10:20.643Z,12.33
2023-01-07T11:12:48.086Z,20.00
2023-01-07T11:15:14.543Z,14.00
2023-01-07T11:17:41.046Z,17.00
2023-01-07T11:20:08.443Z,15.67
2023-01-07T11:22:34.910Z,13.50
2023-01-07T11:25:01.364Z,12.00
2023-01-07T11:27:27.849Z,13.00
2023-01-07T11:29:55.220Z,12.00
2023-01-07T11:32:22.639Z,12.67
2023-01-07T11:34:50.037Z,12.00
2023-01-07T11:37:17.353Z,10.33
2023-01-07T11:39:44.817Z,25.00
2023-01-07T11:42:12.238Z,16.50
2023-01-07T11:44:38.787Z,11.00
2023-01-07T11:47:06.230Z,15.67
2023-01-07T11:49:33.660Z,14.67
2023-01-07T11:52:00.194Z,12.50
2023-01-07T11:54:26.641Z,13.00
2023-01-07T11:56:54.987Z,12.00
2023-01-07T11:59:21.813Z,12.00
2023-01-07T12:01:48.359Z,13.50
2023-01-07T12:04:14.816Z,12.00
2023-01-07T12:09:25.341Z,12.00
2023-01-07T12:11:52.742Z,13.67
2023-01-07T12:14:20.160Z,17.00
2023-01-07T12:16:46.714Z,17.00
2023-01-07T12:19:13.253Z,15.00
2023-01-07T12:24:24.928Z,16.67
2023-01-07T12:26:51.407Z,17.00
2023-01-07T12:29:18.881Z,14.33
2023-01-07T12:31:45.480Z,16.50
2023-01-07T12:34:11.988Z,13.00
2023-01-07T12:39:32.309Z,14.00
2023-01-07T12:41:59.780Z,17.00
2023-01-07T12:44:26.304Z,16.00
2023-01-07T12:46:53.735Z,17.00
2023-01-07T12:49:40.207Z,16.50
2023-01-07T12:55:01.605Z,17.33
2023-01-07T12:57:28.112Z,12.50
2023-01-07T12:59:54.582Z,16.00
2023-01-07T13:02:21.144Z,15.00
2023-01-07T13:04:48.624Z,16.67
2023-01-07T13:10:11.091Z,17.00
2023-01-07T13:12:41.168Z,17.00
2023-01-07T13:15:09.385Z,18.00
2023-01-07T13:17:35.938Z,18.00
2023-01-07T13:20:04.794Z,16.50
2023-01-07T13:25:17.434Z,16.33
2023-01-07T13:27:44.232Z,19.00
2023-01-07T13:30:11.651Z,15.33
2023-01-07T13:32:39.072Z,17.67
2023-01-07T13:35:06.506Z,18.50
2023-01-07T13:40:18.701Z,13.67
2023-01-07T13:42:45.276Z,15.00
2023-01-07T13:45:11.816Z,13.00
2023-01-07T13:47:38.313Z,16.50
2023-01-07T13:50:05.732Z,12.67
2023-01-07T13:55:27.130Z,13.00
2023-01-07T13:57:53.612Z,17.00
2023-01-07T14:00:22.229Z,16.00
2023-01-07T14:02:48.848Z,15.00
2023-01-07T14:05:15.553Z,15.00
2023-01-07T14:10:36.819Z,12.00
2023-01-07T14:13:03.309Z,16.00
2023-01-07T14:15:30.651Z,10.67
2023-01-07T14:17:57.115Z,11.00
2023-01-07T14:20:24.456Z,11.67
2023-01-07T14:25:44.931Z,12.00
2023-01-07T14:28:11.462Z,13.00
2023-01-07T14:30:38.798Z,12.00
2023-01-07T14:33:05.270Z,11.50
2023-01-07T14:35:31.728Z,11.00
2023-01-07T14:40:43.970Z,11.00
2023-01-07T14:43:11.245Z,10.33
2023-01-07T14:45:37.729Z,11.00
2023-01-07T14:48:04.198Z,10.00
2023-01-07T14:50:31.452Z,10.00
2023-01-07T14:55:41.889Z,11.50
2023-01-07T14:58:08.357Z,11.00
2023-01-07T15:00:36.687Z,9.00
2023-01-07T15:03:05.117Z,9.60
2023-01-07T15:05:31.609Z,8.50
2023-01-07T15:10:52.100Z,9.00
2023-01-07T15:13:20.592Z,10.00
2023-01-07T15:15:49.015Z,11.00
2023-01-07T15:18:15.525Z,11.50
2023-01-07T15:20:43.884Z,10.80
2023-01-07T15:25:56.620Z,12.00
2023-01-07T15:28:23.134Z,12.00
2023-01-07T15:30:50.438Z,11.33
2023-01-07T15:33:17.725Z,11.67
2023-01-07T15:35:45.067Z,11.67
2023-01-07T15:38:12.390Z,11.00
2023-01-07T15:40:38.850Z,12.00
2023-01-07T15:43:06.094Z,5.25
2023-01-07T15:45:33.468Z,12.00
2023-01-07T15:48:01.824Z,11.60
2023-01-07T15:50:29.201Z,12.33
2023-01-07T15:52:56.538Z,12.33
2023-01-07T15:55:22.992Z,12.00
2023-01-07T15:57:50.296Z,7.00
2023-01-07T16:00:17.639Z,13.00
2023-01-07T16:02:44.093Z,11.50
2023-01-07T16:05:10.650Z,11.50
2023-01-07T16:07:38.198Z,12.33
2023-01-07T16:10:04.655Z,13.00
2023-01-07T16:12:31.977Z,13.00
2023-01-07T16:14:59.372Z,12.33
2023-01-07T16:17:26.654Z,12.00
2023-01-07T16:19:53.178Z,12.50
2023-01-07T16:22:20.491Z,12.00
2023-01-07T16:24:46.931Z,10.00
2023-01-07T16:27:13.423Z,13.50
2023-01-07T16:29:41.777Z,10.00
2023-01-07T16:32:08.309Z,14.00
2023-01-07T16:34:36.631Z,8.60
2023-01-07T16:37:03.157Z,11.00
2023-01-07T16:39:30.536Z,12.33
2023-01-07T16:41:57.882Z,12.67
2023-01-07T16:44:25.174Z,12.00
2023-01-07T16:46:54.438Z,7.17
2023-01-07T16:49:21.798Z,11.00
2023-01-07T16:51:48.284Z,12.00
2023-01-07T16:54:14.746Z,11.00
2023-01-07T16:59:26.853Z,12.00
2023-01-07T17:01:53.404Z,9.00
2023-01-07T17:04:21.798Z,12.00
2023-01-07T17:06:49.151Z,12.67
2023-01-07T17:09:15.636Z,14.00
2023-01-07T17:14:28.063Z,10.67
2023-01-07T17:16:54.552Z,11.00
2023-01-07T17:19:21.044Z,13.00
2023-01-07T17:21:48.339Z,12.00
2023-01-07T17:24:15.654Z,11.00
2023-01-07T17:29:27.829Z,10.33
2023-01-07T17:31:55.142Z,8.67
2023-01-07T17:34:25.142Z,11.33
2023-01-07T17:36:52.460Z,12.33
2023-01-07T17:39:19.779Z,13.00
2023-01-07T17:44:40.267Z,12.50
2023-01-07T17:47:06.731Z,14.00
2023-01-07T17:49:33.194Z,12.00
2023-01-07T17:51:59.758Z,11.00
2023-01-07T17:54:27.143Z,12.00
2023-01-07T17:59:48.749Z,13.00
2023-01-07T18:02:15.361Z,13.00
2023-01-07T18:04:41.921Z,12.50
2023-01-07T18:07:09.216Z,9.33
2023-01-07T18:09:35.670Z,12.50
2023-01-07T18:14:56.955Z,15.00
2023-01-07T18:17:23.621Z,12.50
2023-01-07T18:19:50.090Z,12.50
2023-01-07T18:22:16.533Z,10.00
2023-01-07T18:24:43.932Z,13.00
2023-01-07T18:29:55.177Z,13.00
2023-01-07T18:32:21.668Z,16.00
2023-01-07T18:34:49.124Z,13.00
2023-01-07T18:37:16.524Z,14.00
2023-01-07T18:39:43.896Z,13.00
2023-01-07T18:45:05.443Z,15.00
2023-01-07T18:47:32.840Z,13.33
2023-01-07T18:50:00.260Z,13.67
2023-01-07T18:52:27.855Z,14.00
2023-01-07T18:54:54.334Z,13.00
2023-01-07T19:00:05.735Z,14.00
2023-01-07T19:02:32.256Z,14.00
2023-01-07T19:04:58.770Z,14.00
2023-01-07T19:07:26.120Z,14.67
2023-01-07T19:09:53.684Z,12.67
2023-01-07T19:15:05.065Z,12.50
2023-01-07T19:17:32.447Z,14.00
2023-01-07T19:19:59.003Z,13.00
2023-01-07T19:22:25.495Z,14.00
2023-01-07T19:24:52.891Z,14.67
2023-01-07T19:30:13.521Z,13.50
2023-01-07T19:32:41.885Z,7.60
2023-01-07T19:35:08.382Z,17.00
2023-01-07T19:37:35.809Z,15.67
2023-01-07T19:40:03.249Z,15.67
2023-01-07T19:45:24.852Z,14.50
2023-01-07T19:47:52.317Z,16.33
2023-01-07T19:50:19.742Z,16.67
2023-01-07T19:52:47.329Z,14.00
2023-01-07T19:55:14.644Z,9.67
2023-01-07T20:00:25.773Z,13.00
2023-01-07T20:02:52.267Z,14.50
2023-01-07T20:05:18.781Z,12.00
2023-01-07T20:07:46.200Z,16.00
2023-01-07T20:10:12.705Z,19.00
2023-01-07T20:12:39.197Z,17.50
2023-01-07T20:15:05.884Z,18.00
2023-01-07T20:17:32.400Z,17.50
2023-01-07T20:19:58.864Z,17.50
2023-01-07T20:22:25.330Z,16.00
2023-01-07T20:24:51.824Z,17.50
2023-01-07T20:27:19.272Z,17.33
2023-01-07T20:29:45.793Z,19.00
2023-01-07T20:32:13.237Z,17.00
2023-01-07T20:34:39.762Z,20.00
2023-01-07T20:37:06.292Z,18.50
2023-01-07T20:39:32.900Z,19.00
2023-01-07T20:41:59.398Z,19.00
2023-01-07T20:44:26.849Z,18.00
2023-01-07T20:46:54.272Z,14.00
2023-01-07T20:49:21.703Z,17.50
2023-01-07T20:51:48.196Z,18.50
2023-01-07T20:54:15.619Z,18.00
2023-01-07T20:56:42.108Z,17.00
2023-01-07T20:59:08.729Z,21.50
2023-01-07T21:01:35.363Z,20.50
2023-01-07T21:04:03.094Z,18.00
2023-01-07T21:06:29.655Z,18.00
2023-01-07T21:08:57.076Z,13.33
2023-01-07T21:11:24.542Z,17.00
2023-01-07T21:13:51.060Z,20.50
2023-01-07T21:19:13.856Z,16.33
2023-01-07T21:21:40.606Z,16.50
2023-01-07T21:24:08.283Z,16.33
2023-01-07T21:26:34.798Z,14.00
2023-01-07T21:29:01.291Z,16.00
2023-01-07T21:34:22.923Z,13.00
2023-01-07T21:36:49.510Z,13.00
2023-01-07T21:39:15.972Z,13.00
2023-01-07T21:41:43.387Z,12.33
2023-01-07T21:44:10.914Z,12.67
2023-01-07T21:49:21.421Z,12.50
2023-01-07T21:51:48.874Z,14.33
2023-01-07T21:54:16.288Z,14.00
2023-01-07T21:56:42.783Z,13.50
2023-01-07T21:59:10.160Z,13.00
2023-01-07T22:04:31.733Z,13.50
2023-01-07T22:06:58.266Z,13.50
2023-01-07T22:09:24.767Z,12.00
2023-01-07T22:11:52.177Z,13.33
2023-01-07T22:14:19.593Z,13.00
2023-01-07T22:19:40.936Z,15.67
2023-01-07T22:22:08.484Z,14.67
2023-01-07T22:24:34.970Z,14.00
2023-01-07T22:27:02.390Z,13.67
2023-01-07T22:29:29.782Z,12.00
2023-01-07T22:34:41.323Z,13.00
2023-01-07T22:37:07.832Z,12.50
2023-01-07T22:39:34.474Z,12.00
2023-01-07T22:42:01.774Z,12.67
2023-01-07T22:44:29.176Z,13.33
2023-01-07T22:49:50.277Z,13.33
2023-01-07T22:52:16.728Z,12.50
2023-01-07T22:54:44.129Z,11.67
2023-01-07T22:57:11.510Z,11.00
2023-01-07T22:59:38.840Z,13.00
2023-01-07T23:05:01.082Z,13.00
2023-01-07T23:07:27.593Z,14.00
2023-01-07T23:09:54.052Z,12.50
2023-01-07T23:12:21.412Z,12.67
2023-01-07T23:14:47.888Z,11.50
2023-01-07T23:20:10.111Z,11.00
2023-01-07T23:22:36.741Z,10.50
2023-01-07T23:25:05.236Z,13.00
2023-01-07T23:27:32.507Z,11.00
2023-01-07T23:29:59.829Z,11.67
2023-01-07T23:35:10.185Z,12.50
2023-01-07T23:37:36.634Z,11.50
2023-01-07T23:40:03.187Z,11.50
2023-01-07T23:42:29.646Z,12.00
2023-01-07T23:44:56.105Z,12.00
2023-01-07T23:50:18.446Z,11.00
2023-01-07T23:52:45.818Z,11.33
2023-01-07T23:55:14.129Z,7.80
2023-01-07T23:57:40.640Z,11.50
